Time;durP1;ratioP1;P1;durP2;ratioP2;P2;SDS_P1;SDS_P2;PMS_P1;PMS_P2;Temp;Humidity;BMP_temperature;BMP_pressure;BME280_temperature;BME280_humidity;BME280_pressure;Samples;Min_cycle;Max_cycle;Signal;HPM_P1;HPM_P2
2024/01/30 00:02:12;;;;;;;0.57;0.30;;;22.30;44.10;;;;;;5135261;27;20096;-31
2024/01/30 00:04:39;;;;;;;1.75;0.30;;;22.30;44.20;;;;;;5138357;27;20060;-35
2024/01/30 00:07:05;;;;;;;1.55;0.20;;;22.20;44.20;;;;;;5134636;27;20055;-36
2024/01/30 00:09:31;;;;;;;0.40;0.28;;;22.20;44.60;;;;;;5142405;27;20046;-32
2024/01/30 00:11:57;;;;;;;0.93;0.40;;;22.10;44.50;;;;;;5136497;27;20130;-36
2024/01/30 00:14:23;;;;;;;1.42;0.40;;;22.20;44.50;;;;;;5138558;27;20027;-32
2024/01/30 00:16:50;;;;;;;0.75;0.40;;;22.20;44.40;;;;;;5134651;27;20027;-33
2024/01/30 00:19:16;;;;;;;0.50;0.40;;;22.30;44.40;;;;;;5130236;27;20032;-36
2024/01/30 00:21:42;;;;;;;0.40;0.30;;;22.20;44.50;;;;;;5140769;27;20035;-33
2024/01/30 00:24:09;;;;;;;0.30;0.30;;;22.20;44.40;;;;;;5132933;27;20027;-36
2024/01/30 00:26:35;;;;;;;0.43;0.20;;;22.10;44.40;;;;;;5146870;27;20038;-33
2024/01/30 00:29:01;;;;;;;0.40;0.30;;;22.10;44.70;;;;;;5141760;27;20015;-37
2024/01/30 00:31:28;;;;;;;0.30;0.30;;;22.20;44.20;;;;;;5143088;27;20812;-32
2024/01/30 00:33:54;;;;;;;0.30;0.20;;;22.20;44.30;;;;;;5142174;27;20027;-32
2024/01/30 00:36:20;;;;;;;0.30;0.20;;;22.20;44.30;;;;;;5131986;27;20057;-35
2024/01/30 00:38:46;;;;;;;0.60;0.40;;;22.20;44.30;;;;;;5130291;27;20031;-36
2024/01/30 00:41:33;;;;;;;0.43;0.17;;;22.10;44.40;;;;;;5137198;27;20098;-34
2024/01/30 00:43:59;;;;;;;0.20;0.20;;;22.10;44.40;;;;;;5056956;28;20041;-34
2024/01/30 00:46:25;;;;;;;0.20;0.20;;;22.10;44.30;;;;;;5054935;28;20041;-38
2024/01/30 00:48:51;;;;;;;0.57;0.20;;;22.20;44.30;;;;;;5058817;28;20097;-32
2024/01/30 00:51:17;;;;;;;1.38;0.20;;;22.20;44.40;;;;;;5055975;28;20665;-35
2024/01/30 00:53:43;;;;;;;0.20;0.20;;;22.10;44.40;;;;;;5021718;28;20134;-34
2024/01/30 00:56:10;;;;;;;0.52;0.38;;;22.10;44.40;;;;;;5037892;28;20040;-36
2024/01/30 00:58:36;;;;;;;0.52;0.25;;;22.00;44.40;;;;;;5032771;28;20100;-35
2024/01/30 01:01:02;;;;;;;0.20;0.20;;;22.10;44.20;;;;;;5038156;28;20060;-35
2024/01/30 01:03:28;;;;;;;0.22;0.20;;;22.20;44.20;;;;;;5045071;28;20036;-36
2024/01/30 01:05:54;;;;;;;0.20;0.20;;;22.20;44.30;;;;;;5035187;28;20037;-34
2024/01/30 01:08:21;;;;;;;0.38;0.28;;;22.10;44.20;;;;;;5035277;28;20059;-36
2024/01/30 01:10:47;;;;;;;0.32;0.22;;;22.10;44.40;;;;;;5037468;28;20041;-35
2024/01/30 01:13:13;;;;;;;0.30;0.30;;;22.00;44.50;;;;;;5044456;28;20541;-35
2024/01/30 01:15:39;;;;;;;0.17;0.13;;;22.00;44.30;;;;;;5039049;28;20045;-32
2024/01/30 01:18:05;;;;;;;0.75;0.40;;;22.10;44.20;;;;;;5038959;28;20025;-36
2024/01/30 01:20:31;;;;;;;0.20;0.20;;;22.10;44.30;;;;;;5059833;28;20095;-36
2024/01/30 01:22:58;;;;;;;0.30;0.30;;;22.10;44.40;;;;;;5108103;28;20036;-32
2024/01/30 01:25:24;;;;;;;0.20;0.20;;;22.10;44.40;;;;;;5111138;28;20527;-33
2024/01/30 01:27:53;;;;;;;0.30;0.30;;;22.00;44.50;;;;;;5122627;28;20027;-35
2024/01/30 01:30:21;;;;;;;0.20;0.20;;;22.00;44.40;;;;;;5103154;28;20052;-37
2024/01/30 01:32:56;;;;;;;0.30;0.20;;;22.00;44.40;;;;;;5111566;28;20028;-33
2024/01/30 01:35:25;;;;;;;0.28;0.20;;;22.10;44.40;;;;;;5120982;28;20031;-37
2024/01/30 01:37:54;;;;;;;0.30;0.28;;;22.10;44.40;;;;;;5120042;28;20053;-35
2024/01/30 01:40:24;;;;;;;0.40;0.22;;;22.10;44.40;;;;;;5110544;28;20028;-37
2024/01/30 01:42:52;;;;;;;0.70;0.30;;;22.00;44.30;;;;;;5122163;28;20035;-34
2024/01/30 01:45:18;;;;;;;0.30;0.20;;;22.00;44.40;;;;;;5124932;28;20047;-36
2024/01/30 01:47:45;;;;;;;0.17;0.17;;;22.00;44.20;;;;;;5112463;27;20028;-34
2024/01/30 01:50:12;;;;;;;;;;;22.10;44.20;;;;;;5130348;27;20032;-32
2024/01/30 01:52:40;;;;;;;0.55;0.30;;;22.10;44.40;;;;;;5110016;27;19927;-34
2024/01/30 01:55:07;;;;;;;0.40;0.20;;;22.00;44.20;;;;;;5119510;27;20027;-34
2024/01/30 01:57:34;;;;;;;0.40;0.30;;;22.00;44.30;;;;;;5125727;27;20031;-32
2024/01/30 02:00:01;;;;;;;0.20;0.20;;;21.90;44.40;;;;;;5115557;28;20027;-31
2024/01/30 02:02:30;;;;;;;1.95;0.30;;;21.90;44.20;;;;;;5114269;28;20031;-40
2024/01/30 02:04:59;;;;;;;0.40;0.40;;;22.00;44.10;;;;;;5120779;28;20040;-32
2024/01/30 02:07:25;;;;;;;0.20;0.20;;;22.00;44.30;;;;;;5117070;27;20028;-36
2024/01/30 02:09:52;;;;;;;0.20;0.20;;;22.00;44.20;;;;;;5098304;28;20040;-36
2024/01/30 02:12:18;;;;;;;0.57;0.30;;;21.90;44.30;;;;;;5112208;28;20024;-37
2024/01/30 02:14:48;;;;;;;0.20;0.20;;;21.90;44.30;;;;;;5117109;27;20043;-38
2024/01/30 02:17:15;;;;;;;0.43;0.30;;;21.90;44.10;;;;;;5116214;28;20035;-32
2024/01/30 02:19:41;;;;;;;0.40;0.30;;;22.00;44.10;;;;;;5119295;28;20027;-33
2024/01/30 02:22:07;;;;;;;0.22;0.20;;;22.00;44.20;;;;;;5116805;28;20729;-34
2024/01/30 02:24:33;;;;;;;0.38;0.30;;;22.00;44.20;;;;;;5086913;28;20034;-33
2024/01/30 02:26:59;;;;;;;0.20;0.20;;;21.90;44.20;;;;;;5119106;27;20028;-33
2024/01/30 02:29:26;;;;;;;0.25;0.20;;;21.90;44.30;;;;;;5127683;27;20020;-35
2024/01/30 02:31:52;;;;;;;0.35;0.35;;;21.90;44.10;;;;;;5114979;27;20042;-36
2024/01/30 02:34:19;;;;;;;0.93;0.30;;;21.90;44.30;;;;;;5122847;27;20512;-36
2024/01/30 02:36:45;;;;;;;0.60;0.30;;;21.90;44.30;;;;;;5118728;27;20046;-34
2024/01/30 02:39:12;;;;;;;0.23;0.23;;;21.90;44.40;;;;;;5121334;27;20024;-31
2024/01/30 02:41:38;;;;;;;0.80;0.30;;;21.90;44.50;;;;;;5105460;28;20280;-36
2024/01/30 02:44:04;;;;;;;0.40;0.20;;;21.80;44.50;;;;;;5105914;28;20020;-34
2024/01/30 02:46:30;;;;;;;0.40;0.30;;;21.80;44.40;;;;;;5111545;28;20078;-37
2024/01/30 02:48:56;;;;;;;0.40;0.30;;;21.90;44.50;;;;;;5121766;28;20031;-33
2024/01/30 02:51:23;;;;;;;0.22;0.22;;;21.90;44.60;;;;;;5117713;28;20059;-35
2024/01/30 02:53:49;;;;;;;0.38;0.30;;;21.90;44.50;;;;;;5137786;27;20057;-34
2024/01/30 02:56:15;;;;;;;0.43;0.22;;;21.90;44.60;;;;;;5135532;27;20086;-33
2024/01/30 02:58:41;;;;;;;0.30;0.28;;;21.80;44.60;;;;;;5138873;27;20042;-37
2024/01/30 03:01:07;;;;;;;0.30;0.20;;;21.80;44.50;;;;;;5142879;27;20031;-33
2024/01/30 03:03:37;;;;;;;0.30;0.30;;;21.80;44.40;;;;;;5140129;27;20036;-34
2024/01/30 03:06:03;;;;;;;0.90;0.40;;;21.90;44.60;;;;;;5135974;27;20573;-34
2024/01/30 03:08:29;;;;;;;0.38;0.20;;;21.90;44.50;;;;;;5138485;27;20054;-34
2024/01/30 03:10:55;;;;;;;1.92;0.30;;;21.90;44.40;;;;;;5140751;27;20471;-33
2024/01/30 03:13:23;;;;;;;0.30;0.30;;;21.80;44.50;;;;;;5131335;27;20091;-37
2024/01/30 03:15:49;;;;;;;0.63;0.40;;;21.70;44.60;;;;;;5136631;27;20038;-35
2024/01/30 03:18:15;;;;;;;0.40;0.30;;;21.80;44.40;;;;;;5114309;27;20070;-37
2024/01/30 03:20:42;;;;;;;0.77;0.40;;;21.80;44.50;;;;;;5131029;27;20035;-33
2024/01/30 03:23:08;;;;;;;0.28;0.28;;;21.90;44.70;;;;;;5129521;27;20084;-37
2024/01/30 03:25:34;;;;;;;0.70;0.30;;;21.90;44.70;;;;;;5130528;27;20066;-35
2024/01/30 03:28:00;;;;;;;0.30;0.30;;;21.80;44.60;;;;;;5140022;27;20015;-38
2024/01/30 03:30:26;;;;;;;0.20;0.20;;;21.80;44.60;;;;;;5133400;27;20039;-36
2024/01/30 03:32:53;;;;;;;0.30;0.30;;;21.80;44.50;;;;;;5137387;27;20023;-34
2024/01/30 03:35:19;;;;;;;1.35;0.25;;;21.80;44.50;;;;;;5134657;27;20035;-35
2024/01/30 03:37:45;;;;;;;0.40;0.20;;;21.90;44.60;;;;;;5102711;27;20110;-36
2024/01/30 03:40:12;;;;;;;0.40;0.20;;;21.90;44.60;;;;;;5127002;27;20032;-33
2024/01/30 03:42:38;;;;;;;0.30;0.20;;;21.80;44.60;;;;;;5126915;27;20042;-34
2024/01/30 03:45:05;;;;;;;0.35;0.20;;;21.80;44.60;;;;;;5127997;27;20063;-36
2024/01/30 03:47:31;;;;;;;0.20;0.20;;;21.70;44.40;;;;;;5137160;27;20032;-34
2024/01/30 03:49:57;;;;;;;0.20;0.20;;;21.80;44.50;;;;;;5130970;27;20081;-33
2024/01/30 03:52:24;;;;;;;1.40;0.30;;;21.80;44.60;;;;;;5132456;27;20039;-34
2024/01/30 03:54:50;;;;;;;0.40;0.30;;;21.80;44.50;;;;;;5126203;27;20042;-33
2024/01/30 03:57:16;;;;;;;0.30;0.30;;;21.80;44.50;;;;;;5137698;27;20016;-35
2024/01/30 03:59:43;;;;;;;0.30;0.30;;;21.70;44.60;;;;;;5126787;27;20043;-38
2024/01/30 04:02:11;;;;;;;0.40;0.30;;;21.70;44.30;;;;;;5137404;27;20024;-34
2024/01/30 04:04:37;;;;;;;0.38;0.20;;;21.80;44.60;;;;;;5131263;27;20043;-33
2024/01/30 04:07:03;;;;;;;0.30;0.20;;;21.80;44.60;;;;;;5140116;27;20088;-35
2024/01/30 04:09:30;;;;;;;0.40;0.30;;;21.80;44.50;;;;;;5138297;27;20031;-33
2024/01/30 04:11:56;;;;;;;0.52;0.30;;;21.80;44.60;;;;;;5139778;27;20026;-34
2024/01/30 04:14:22;;;;;;;0.30;0.30;;;21.70;44.60;;;;;;5121827;27;20023;-34
2024/01/30 04:16:48;;;;;;;0.40;0.30;;;21.70;44.40;;;;;;5140774;27;20027;-33
2024/01/30 04:19:15;;;;;;;0.50;0.22;;;21.70;44.50;;;;;;5141290;27;20031;-34
2024/01/30 04:21:41;;;;;;;0.20;0.20;;;21.80;44.60;;;;;;5138942;27;20030;-36
2024/01/30 04:24:07;;;;;;;0.40;0.30;;;21.80;44.60;;;;;;5134924;27;20497;-36
2024/01/30 04:26:33;;;;;;;0.93;0.20;;;21.80;44.60;;;;;;5134511;27;20051;-34
2024/01/30 04:28:59;;;;;;;0.40;0.28;;;21.70;44.60;;;;;;5127293;27;20030;-35
2024/01/30 04:31:25;;;;;;;0.38;0.30;;;21.70;44.50;;;;;;5134179;27;20384;-35
2024/01/30 04:33:52;;;;;;;0.20;0.20;;;21.70;44.50;;;;;;5133252;27;20034;-34
2024/01/30 04:36:18;;;;;;;0.50;0.30;;;21.80;44.60;;;;;;5135473;27;20153;-35
2024/01/30 04:38:44;;;;;;;0.13;0.13;;;21.80;44.70;;;;;;5144089;27;20392;-34
2024/01/30 04:41:10;;;;;;;0.95;0.30;;;21.70;44.70;;;;;;5128072;27;20031;-33
2024/01/30 04:43:36;;;;;;;0.20;0.20;;;21.70;44.70;;;;;;5123000;27;20031;-35
2024/01/30 04:46:03;;;;;;;1.40;0.20;;;21.70;44.50;;;;;;5137896;27;20040;-36
2024/01/30 04:48:30;;;;;;;0.20;0.20;;;21.70;44.60;;;;;;5135538;27;20054;-34
2024/01/30 04:50:56;;;;;;;0.57;0.30;;;21.80;44.70;;;;;;5135939;27;20038;-34
2024/01/30 04:53:22;;;;;;;0.35;0.20;;;21.70;44.60;;;;;;5140922;27;20047;-35
2024/01/30 04:55:49;;;;;;;0.20;0.20;;;21.70;44.60;;;;;;5138747;27;20031;-36
2024/01/30 04:58:15;;;;;;;0.30;0.20;;;21.70;44.70;;;;;;5138787;27;20083;-34
2024/01/30 05:00:41;;;;;;;0.43;0.20;;;21.70;44.60;;;;;;5136507;27;20030;-33
2024/01/30 05:03:07;;;;;;;0.47;0.20;;;21.70;44.70;;;;;;5137244;27;20048;-33
2024/01/30 05:05:33;;;;;;;1.95;0.20;;;21.80;44.70;;;;;;5138531;27;20028;-35
2024/01/30 05:08:00;;;;;;;0.55;0.30;;;21.70;44.70;;;;;;5138734;27;20030;-36
2024/01/30 05:10:28;;;;;;;0.40;0.17;;;21.70;44.70;;;;;;5138370;27;20031;-34
2024/01/30 05:12:54;;;;;;;0.10;0.10;;;21.60;44.70;;;;;;5137366;27;20034;-35
2024/01/30 05:15:20;;;;;;;0.20;0.20;;;21.70;44.60;;;;;;5139475;27;20518;-35
2024/01/30 05:17:47;;;;;;;0.30;0.20;;;21.70;44.70;;;;;;5139938;27;20029;-37
2024/01/30 05:20:13;;;;;;;0.20;0.20;;;21.70;44.70;;;;;;5140869;27;20034;-34
2024/01/30 05:22:44;;;;;;;0.32;0.20;;;21.70;44.70;;;;;;5138592;27;20023;-31
2024/01/30 05:25:12;;;;;;;0.20;0.20;;;21.70;44.70;;;;;;5138359;27;20090;-32
2024/01/30 05:27:38;;;;;;;0.22;0.20;;;21.60;44.70;;;;;;5138134;28;20077;-30
2024/01/30 05:30:06;;;;;;;0.20;0.20;;;21.70;44.60;;;;;;5138332;27;20027;-33
2024/01/30 05:32:32;;;;;;;0.30;0.20;;;21.70;44.70;;;;;;5138705;27;20023;-33
2024/01/30 05:34:59;;;;;;;0.43;0.30;;;21.70;44.70;;;;;;5139603;27;20122;-31
2024/01/30 05:37:25;;;;;;;0.20;0.20;;;21.70;44.80;;;;;;5140597;28;20110;-32
2024/01/30 05:39:51;;;;;;;0.70;0.20;;;21.60;44.80;;;;;;5138806;27;20053;-35
2024/01/30 05:42:17;;;;;;;0.30;0.30;;;21.60;44.80;;;;;;5120575;28;20027;-35
2024/01/30 05:44:43;;;;;;;0.30;0.30;;;21.60;44.70;;;;;;5139312;27;20038;-31
2024/01/30 05:47:09;;;;;;;0.30;0.30;;;21.70;44.80;;;;;;5138126;27;20040;-32
2024/01/30 05:49:36;;;;;;;0.20;0.20;;;21.70;44.70;;;;;;5138321;28;20050;-36
2024/01/30 05:52:03;;;;;;;0.20;0.20;;;21.60;44.70;;;;;;5138692;27;20136;-36
2024/01/30 05:54:29;;;;;;;0.30;0.22;;;21.60;44.80;;;;;;5139582;28;20084;-32
2024/01/30 05:56:56;;;;;;;0.20;0.20;;;21.60;44.80;;;;;;5138230;28;20134;-33
2024/01/30 05:59:22;;;;;;;0.30;0.20;;;21.60;44.80;;;;;;5138814;28;20038;-36
2024/01/30 06:01:48;;;;;;;0.30;0.20;;;21.60;44.80;;;;;;5137133;27;20027;-35
2024/01/30 06:04:15;;;;;;;0.38;0.20;;;21.60;44.70;;;;;;5138606;27;20105;-38
2024/01/30 06:06:41;;;;;;;0.20;0.20;;;21.60;44.80;;;;;;5136932;27;20118;-32
2024/01/30 06:09:12;;;;;;;0.45;0.30;;;21.60;44.80;;;;;;5135741;27;20019;-34
2024/01/30 06:11:38;;;;;;;0.30;0.30;;;21.60;44.70;;;;;;5135715;27;20046;-34
2024/01/30 06:14:04;;;;;;;0.40;0.20;;;21.60;44.80;;;;;;5140689;27;20015;-32
2024/01/30 06:16:31;;;;;;;0.63;0.30;;;21.60;44.80;;;;;;5138382;27;20031;-33
2024/01/30 06:18:57;;;;;;;0.43;0.30;;;21.60;44.80;;;;;;5137905;28;20042;-31
2024/01/30 06:21:24;;;;;;;0.28;0.28;;;21.60;44.70;;;;;;5139794;27;20019;-31
2024/01/30 06:23:50;;;;;;;0.30;0.30;;;21.50;44.80;;;;;;5134977;27;20717;-35
2024/01/30 06:26:16;;;;;;;0.35;0.20;;;21.50;44.90;;;;;;5137088;27;20047;-34
2024/01/30 06:28:42;;;;;;;0.40;0.30;;;21.50;44.70;;;;;;5139855;27;20349;-39
2024/01/30 06:31:08;;;;;;;0.30;0.30;;;21.60;44.80;;;;;;5142347;27;20031;-34
2024/01/30 06:33:34;;;;;;;0.30;0.30;;;21.60;44.70;;;;;;5138568;27;20542;-34
2024/01/30 06:36:00;;;;;;;0.30;0.30;;;21.60;44.70;;;;;;5140992;27;20079;-37
2024/01/30 06:38:26;;;;;;;0.35;0.20;;;21.50;44.70;;;;;;5141550;27;20054;-32
2024/01/30 06:40:53;;;;;;;0.20;0.20;;;21.50;44.80;;;;;;5142088;27;20020;-37
2024/01/30 06:43:19;;;;;;;0.20;0.20;;;21.50;44.80;;;;;;5143025;27;20039;-34
2024/01/30 06:45:46;;;;;;;0.65;0.30;;;21.50;44.70;;;;;;5141891;27;20054;-34
2024/01/30 06:48:12;;;;;;;2.15;0.20;;;21.60;44.80;;;;;;5140249;27;20027;-32
2024/01/30 06:50:38;;;;;;;0.20;0.20;;;21.60;44.70;;;;;;5140298;27;20038;-37
2024/01/30 06:53:04;;;;;;;0.40;0.30;;;21.50;44.70;;;;;;5139764;27;20090;-34
2024/01/30 06:55:30;;;;;;;0.63;0.20;;;21.50;44.80;;;;;;5142942;27;20055;-35
2024/01/30 06:57:56;;;;;;;0.35;0.25;;;21.50;44.80;;;;;;5141665;27;20019;-31
2024/01/30 07:00:23;;;;;;;0.38;0.30;;;21.50;44.80;;;;;;5140370;27;20023;-34
2024/01/30 07:02:49;;;;;;;0.20;0.20;;;21.50;44.80;;;;;;5135109;27;20099;-35
2024/01/30 07:05:17;;;;;;;0.30;0.30;;;21.50;44.70;;;;;;5142275;27;20027;-36
2024/01/30 07:07:43;;;;;;;0.22;0.20;;;21.50;44.70;;;;;;5134642;27;20039;-32
2024/01/30 07:10:09;;;;;;;0.30;0.30;;;21.50;44.80;;;;;;5139317;27;20048;-36
2024/01/30 07:12:35;;;;;;;0.40;0.20;;;21.40;44.80;;;;;;5134107;27;20027;-32
2024/01/30 07:15:02;;;;;;;0.22;0.20;;;21.50;44.80;;;;;;5139632;27;20951;-34
2024/01/30 07:17:29;;;;;;;0.30;0.30;;;21.50;44.80;;;;;;5140086;27;20098;-33
2024/01/30 07:19:55;;;;;;;0.40;0.30;;;21.50;44.70;;;;;;5134851;27;20032;-33
2024/01/30 07:22:21;;;;;;;0.30;0.30;;;21.50;44.80;;;;;;5145383;27;20031;-33
2024/01/30 07:24:48;;;;;;;1.48;0.30;;;21.40;44.80;;;;;;5135979;27;20027;-33
2024/01/30 07:27:14;;;;;;;0.38;0.20;;;21.40;44.80;;;;;;5133931;27;20063;-38
2024/01/30 07:29:41;;;;;;;0.25;0.20;;;21.50;44.90;;;;;;5140345;27;20117;-35
2024/01/30 07:32:07;;;;;;;0.30;0.20;;;21.50;44.80;;;;;;5133992;27;20137;-35
2024/01/30 07:34:33;;;;;;;0.32;0.20;;;21.50;44.80;;;;;;5133206;27;20031;-33
2024/01/30 07:36:59;;;;;;;0.22;0.20;;;21.50;44.80;;;;;;5140067;27;20032;-33
2024/01/30 07:39:25;;;;;;;0.20;0.20;;;21.40;44.80;;;;;;5137515;27;20489;-34
2024/01/30 07:41:51;;;;;;;0.57;0.20;;;21.40;44.90;;;;;;5137520;27;20027;-38
2024/01/30 07:44:18;;;;;;;0.30;0.30;;;21.40;44.90;;;;;;5138084;27;20031;-32
2024/01/30 07:46:44;;;;;;;0.20;0.20;;;21.50;44.80;;;;;;5140401;27;20039;-34
2024/01/30 07:49:10;;;;;;;0.32;0.30;;;21.50;44.80;;;;;;5135320;27;20028;-32
2024/01/30 07:51:36;;;;;;;0.20;0.20;;;21.50;45.40;;;;;;5135915;27;20687;-35
2024/01/30 07:54:02;;;;;;;0.45;0.30;;;21.40;44.90;;;;;;5138946;27;20104;-34
2024/01/30 07:56:28;;;;;;;0.20;0.20;;;21.40;44.90;;;;;;5136877;27;20484;-34
2024/01/30 07:58:55;;;;;;;0.45;0.30;;;21.40;44.90;;;;;;5133002;27;20035;-38
2024/01/30 08:01:21;;;;;;;0.30;0.30;;;21.50;45.00;;;;;;5134574;27;20023;-33
2024/01/30 08:03:47;;;;;;;0.22;0.20;;;21.50;44.80;;;;;;5136427;27;20031;-34
2024/01/30 08:06:13;;;;;;;0.40;0.20;;;21.40;44.90;;;;;;5136108;27;20052;-33
2024/01/30 08:08:40;;;;;;;0.20;0.20;;;21.40;44.90;;;;;;5147314;27;20019;-34
2024/01/30 08:11:07;;;;;;;0.30;0.30;;;21.40;44.80;;;;;;5137246;27;20047;-34
2024/01/30 08:13:33;;;;;;;0.57;0.20;;;21.40;44.80;;;;;;5130714;27;20031;-38
2024/01/30 08:15:59;;;;;;;0.20;0.20;;;21.50;44.80;;;;;;5132173;27;20058;-35
2024/01/30 08:18:26;;;;;;;0.38;0.30;;;21.50;44.90;;;;;;5131322;27;20019;-30
2024/01/30 08:20:52;;;;;;;0.20;0.20;;;21.40;44.90;;;;;;5137843;27;20026;-33
2024/01/30 08:23:18;;;;;;;0.50;0.38;;;21.40;44.90;;;;;;5134155;27;20031;-32
2024/01/30 08:25:44;;;;;;;0.20;0.20;;;21.30;44.90;;;;;;5130452;27;20035;-35
2024/01/30 08:28:10;;;;;;;0.10;0.10;;;21.40;45.00;;;;;;5142003;27;20031;-31
2024/01/30 08:30:38;;;;;;;0.20;0.20;;;21.40;44.90;;;;;;5138630;27;20081;-32
2024/01/30 08:33:05;;;;;;;0.20;0.20;;;21.40;44.80;;;;;;5135365;27;20035;-32
2024/01/30 08:35:33;;;;;;;0.15;0.15;;;21.40;44.90;;;;;;5136779;27;20038;-32
2024/01/30 08:38:00;;;;;;;1.77;0.30;;;21.40;44.90;;;;;;5146418;27;20027;-34
2024/01/30 08:40:26;;;;;;;0.30;0.20;;;21.40;45.00;;;;;;5134085;27;20023;-37
2024/01/30 08:42:52;;;;;;;0.25;0.22;;;21.40;45.00;;;;;;5136143;27;20031;-32
2024/01/30 08:45:19;;;;;;;0.40;0.20;;;21.50;44.90;;;;;;5130435;27;20103;-34
2024/01/30 08:47:45;;;;;;;2.78;0.30;;;21.50;45.00;;;;;;5135895;27;20461;-36
2024/01/30 08:50:11;;;;;;;0.30;0.30;;;21.40;45.00;;;;;;5128350;27;20049;-32
2024/01/30 08:52:37;;;;;;;1.17;0.10;;;21.30;45.00;;;;;;5132899;27;20572;-34
2024/01/30 08:55:04;;;;;;;0.40;0.20;;;21.40;44.90;;;;;;5140704;27;20019;-36
2024/01/30 08:57:30;;;;;;;0.30;0.20;;;21.40;44.90;;;;;;5138538;27;20031;-35
2024/01/30 08:59:56;;;;;;;0.20;0.20;;;21.40;44.80;;;;;;5129227;27;20103;-33
2024/01/30 09:02:23;;;;;;;0.10;0.10;;;21.50;44.80;;;;;;5136426;27;20113;-37
2024/01/30 09:04:49;;;;;;;0.30;0.25;;;21.40;44.80;;;;;;5131231;27;20031;-34
2024/01/30 09:07:15;;;;;;;0.43;0.30;;;21.30;44.80;;;;;;5133551;27;20368;-36
2024/01/30 09:09:41;;;;;;;0.20;0.20;;;21.40;44.70;;;;;;5126171;27;20072;-34
2024/01/30 09:12:09;;;;;;;0.20;0.20;;;21.40;44.70;;;;;;5129146;27;20745;-34
2024/01/30 09:14:36;;;;;;;1.17;0.20;;;21.40;44.70;;;;;;5130513;27;20027;-35
2024/01/30 09:17:03;;;;;;;0.30;0.20;;;21.50;44.60;;;;;;5128476;27;20030;-33
2024/01/30 09:19:29;;;;;;;0.38;0.30;;;21.40;44.60;;;;;;5116012;27;20480;-36
2024/01/30 09:21:56;;;;;;;0.30;0.20;;;21.40;44.70;;;;;;5138189;27;20098;-34
2024/01/30 09:24:22;;;;;;;0.38;0.20;;;21.30;44.60;;;;;;5129359;27;20031;-36
2024/01/30 09:26:48;;;;;;;0.30;0.30;;;21.40;44.70;;;;;;5138928;27;20036;-37
2024/01/30 09:29:14;;;;;;;0.20;0.20;;;21.40;44.60;;;;;;5136044;28;20043;-38
2024/01/30 09:31:46;;;;;;;0.20;0.20;;;21.40;44.60;;;;;;5132045;28;20035;-33
2024/01/30 09:34:13;;;;;;;0.28;0.28;;;21.40;44.70;;;;;;5142279;27;20027;-35
2024/01/30 09:36:39;;;;;;;0.43;0.30;;;21.30;44.70;;;;;;5135462;28;20023;-33
2024/01/30 09:39:06;;;;;;;0.30;0.30;;;21.30;44.60;;;;;;5126661;28;20091;-36
2024/01/30 09:41:33;;;;;;;0.17;0.17;;;21.30;44.60;;;;;;5139176;28;20027;-35
2024/01/30 09:44:00;;;;;;;0.22;0.20;;;21.40;44.60;;;;;;5125403;27;20092;-33
2024/01/30 09:46:27;;;;;;;0.47;0.20;;;21.40;44.50;;;;;;5109673;28;20070;-34
2024/01/30 09:48:54;;;;;;;;;;;21.40;44.50;;;;;;5131735;28;20028;-38
2024/01/30 09:51:20;;;;;;;0.20;0.20;;;21.30;44.50;;;;;;5106558;28;20665;-34
2024/01/30 09:53:46;;;;;;;0.30;0.30;;;21.30;44.60;;;;;;5134412;28;20058;-33
2024/01/30 09:56:15;;;;;;;0.15;0.13;;;21.30;44.50;;;;;;5123564;28;20023;-38
2024/01/30 09:58:41;;;;;;;0.38;0.20;;;21.40;44.50;;;;;;5132887;28;20054;-32
2024/01/30 10:01:08;;;;;;;0.25;0.22;;;21.40;44.40;;;;;;5130811;27;20137;-37
2024/01/30 10:03:34;;;;;;;0.20;0.20;;;21.30;44.40;;;;;;5123586;27;20039;-33
2024/01/30 10:06:00;;;;;;;0.60;0.38;;;21.30;44.50;;;;;;5115897;28;20051;-34
2024/01/30 10:08:27;;;;;;;0.30;0.30;;;21.30;44.50;;;;;;5142659;27;20019;-35
2024/01/30 10:10:53;;;;;;;0.40;0.30;;;21.30;44.40;;;;;;5141277;27;20031;-34
2024/01/30 10:13:19;;;;;;;1.00;0.22;;;21.40;44.50;;;;;;5138910;27;20019;-34
2024/01/30 10:15:45;;;;;;;0.30;0.20;;;21.40;44.40;;;;;;5136174;27;20031;-35
2024/01/30 10:18:11;;;;;;;0.30;0.25;;;21.30;44.40;;;;;;5134627;27;20028;-34
2024/01/30 10:20:37;;;;;;;0.50;0.30;;;21.30;44.40;;;;;;5138908;27;20035;-33
2024/01/30 10:23:04;;;;;;;0.88;0.30;;;21.20;44.40;;;;;;5134516;27;20019;-37
2024/01/30 10:25:33;;;;;;;0.33;0.20;;;21.30;44.40;;;;;;5114524;27;20068;-36
2024/01/30 10:27:59;;;;;;;0.30;0.30;;;21.40;44.40;;;;;;5118284;27;20296;-36
2024/01/30 10:30:26;;;;;;;0.20;0.20;;;21.40;44.40;;;;;;5137422;27;20039;-33
2024/01/30 10:32:52;;;;;;;0.30;0.20;;;21.30;44.40;;;;;;5142357;27;20059;-36
2024/01/30 10:35:19;;;;;;;0.20;0.20;;;21.30;44.40;;;;;;5138637;27;20053;-34
2024/01/30 10:37:47;;;;;;;0.20;0.20;;;21.20;44.30;;;;;;5136173;27;20125;-35
2024/01/30 10:40:13;;;;;;;0.38;0.22;;;21.30;44.40;;;;;;5118358;27;20026;-33
2024/01/30 10:42:44;;;;;;;0.22;0.20;;;21.40;44.40;;;;;;5111771;27;20031;-36
2024/01/30 10:45:14;;;;;;;0.50;0.30;;;21.40;44.30;;;;;;5139668;27;20042;-36
2024/01/30 10:47:42;;;;;;;0.35;0.30;;;21.30;44.30;;;;;;5136574;27;20039;-35
2024/01/30 10:50:10;;;;;;;0.55;0.20;;;21.30;44.50;;;;;;5121899;27;20043;-34
2024/01/30 10:52:36;;;;;;;0.70;0.22;;;21.30;44.40;;;;;;5132318;27;20055;-33
2024/01/30 10:55:04;;;;;;;0.40;0.40;;;21.30;44.40;;;;;;5125279;27;20492;-35
2024/01/30 10:57:30;;;;;;;0.28;0.28;;;21.40;44.30;;;;;;5133787;27;20051;-34
2024/01/30 11:00:00;;;;;;;0.35;0.32;;;21.40;44.30;;;;;;5142550;27;20038;-31
2024/01/30 11:02:26;;;;;;;0.30;0.20;;;21.30;44.30;;;;;;5125527;27;20030;-32
2024/01/30 11:04:57;;;;;;;0.43;0.28;;;21.20;44.30;;;;;;5091693;27;20040;-33
2024/01/30 11:07:30;;;;;;;0.40;0.25;;;21.30;44.20;;;;;;5108937;28;20019;-30
2024/01/30 11:10:02;;;;;;;0.45;0.40;;;21.30;44.20;;;;;;5114327;27;20027;-35
2024/01/30 11:12:29;;;;;;;0.43;0.30;;;21.40;44.30;;;;;;5132655;27;20432;-33
2024/01/30 11:15:05;;;;;;;0.38;0.28;;;21.30;44.30;;;;;;5128032;27;20023;-36
2024/01/30 11:18:01;;;;;;;0.52;0.30;;;21.30;44.30;;;;;;5132217;27;20062;-33
2024/01/30 11:20:35;;;;;;;0.45;0.20;;;21.20;44.30;;;;;;5113206;27;20031;-35
2024/01/30 11:23:05;;;;;;;0.40;0.25;;;21.30;44.20;;;;;;5133958;27;20027;-36
2024/01/30 11:25:32;;;;;;;0.30;0.30;;;21.30;44.20;;;;;;5110832;28;20669;-36
2024/01/30 11:27:58;;;;;;;0.40;0.40;;;21.40;44.20;;;;;;5142394;27;20031;-33
2024/01/30 11:30:28;;;;;;;0.28;0.28;;;21.30;44.20;;;;;;5143479;27;20030;-33
2024/01/30 11:33:11;;;;;;;0.22;0.20;;;21.30;44.20;;;;;;5143124;27;20027;-36
2024/01/30 11:35:41;;;;;;;0.47;0.40;;;21.20;44.10;;;;;;5119942;27;20053;-32
2024/01/30 11:38:08;;;;;;;0.68;0.40;;;21.30;44.10;;;;;;5111511;27;20051;-34
2024/01/30 11:40:34;;;;;;;0.60;0.40;;;21.30;44.20;;;;;;5129422;27;20057;-33
2024/01/30 11:43:01;;;;;;;0.47;0.35;;;21.30;44.10;;;;;;5111073;27;20038;-34
2024/01/30 11:45:28;;;;;;;0.75;0.38;;;21.30;44.10;;;;;;5143604;27;20051;-35
2024/01/30 11:47:54;;;;;;;0.32;0.30;;;21.30;44.30;;;;;;5129166;27;20050;-36
2024/01/30 11:50:20;;;;;;;1.00;0.30;;;21.20;44.30;;;;;;5138337;27;20023;-36
2024/01/30 11:52:47;;;;;;;0.30;0.30;;;21.30;44.40;;;;;;5132263;27;20532;-30
2024/01/30 11:55:14;;;;;;;0.88;0.30;;;21.30;44.30;;;;;;5130454;27;20062;-35
2024/01/30 11:57:40;;;;;;;0.77;0.25;;;21.30;44.30;;;;;;5147964;27;20113;-32
2024/01/30 12:00:13;;;;;;;0.40;0.40;;;21.30;44.20;;;;;;5135355;27;20034;-36
2024/01/30 12:02:40;;;;;;;0.50;0.30;;;21.30;44.40;;;;;;5133002;27;20054;-33
2024/01/30 12:05:07;;;;;;;0.30;0.30;;;21.20;44.30;;;;;;5153665;27;20031;-35
2024/01/30 12:07:33;;;;;;;0.45;0.32;;;21.30;44.30;;;;;;5129273;27;20051;-34
2024/01/30 12:10:00;;;;;;;0.50;0.30;;;21.30;44.20;;;;;;5135897;27;20031;-35
2024/01/30 12:12:26;;;;;;;0.40;0.38;;;21.30;44.00;;;;;;5137758;27;20038;-31
2024/01/30 12:14:53;;;;;;;0.40;0.40;;;21.30;44.10;;;;;;5116290;27;20024;-33
2024/01/30 12:17:32;;;;;;;1.73;0.30;;;21.30;44.20;;;;;;5130280;27;20020;-33
2024/01/30 12:20:06;;;;;;;0.45;0.30;;;21.20;44.20;;;;;;5134544;27;20030;-36
2024/01/30 12:22:54;;;;;;;0.65;0.40;;;21.20;44.10;;;;;;5135588;27;20030;-32
2024/01/30 12:25:23;;;;;;;0.75;0.35;;;21.30;44.10;;;;;;5136187;27;20063;-33
2024/01/30 12:27:50;;;;;;;0.45;0.30;;;21.30;44.20;;;;;;5129135;27;20058;-32
2024/01/30 12:30:16;;;;;;;0.30;0.20;;;21.30;44.20;;;;;;5120383;27;20057;-36
2024/01/30 12:32:43;;;;;;;0.30;0.20;;;21.30;44.10;;;;;;5136585;27;20050;-37
2024/01/30 12:35:15;;;;;;;0.22;0.20;;;21.20;44.10;;;;;;5135565;27;20046;-32
2024/01/30 12:37:42;;;;;;;0.20;0.20;;;21.20;44.10;;;;;;5141589;27;20039;-35
2024/01/30 12:40:09;;;;;;;0.82;0.40;;;21.30;44.10;;;;;;5140899;27;20046;-31
2024/01/30 12:42:35;;;;;;;0.25;0.25;;;21.30;44.10;;;;;;5143513;27;20039;-34
2024/01/30 12:45:05;;;;;;;0.45;0.30;;;21.30;44.10;;;;;;5133230;27;20062;-35
2024/01/30 12:47:32;;;;;;;0.63;0.30;;;21.20;44.00;;;;;;5144978;27;20110;-35